Time;durP1;ratioP1;P1;durP2;ratioP2;P2;SDS_P1;SDS_P2;PMS_P1;PMS_P2;Temp;Humidity;BMP_temperature;BMP_pressure;BME280_temperature;BME280_humidity;BME280_pressure;Samples;Min_cycle;Max_cycle;Signal;HPM_P1;HPM_P2
2021/12/30 00:01:48;;;;;;;38.42;7.00;;;8.40;99.90;;;;;;5043213;28;20527;-65
2021/12/30 00:04:14;;;;;;;40.70;6.38;;;8.50;99.90;;;;;;5049480;28;20098;-64
2021/12/30 00:06:40;;;;;;;34.95;6.32;;;8.50;99.90;;;;;;5045416;28;20037;-64
2021/12/30 00:09:12;;;;;;;38.38;6.95;;;8.50;99.90;;;;;;5030827;28;20052;-64
2021/12/30 00:11:38;;;;;;;39.28;7.05;;;8.40;99.90;;;;;;5033150;28;20037;-64
2021/12/30 00:14:04;;;;;;;38.17;6.38;;;8.50;99.90;;;;;;5032399;28;20132;-64
2021/12/30 00:16:30;;;;;;;37.63;7.43;;;8.50;99.90;;;;;;5033580;28;20476;-63
2021/12/30 00:18:55;;;;;;;47.05;7.30;;;8.40;99.90;;;;;;5033240;28;20060;-65
2021/12/30 00:21:23;;;;;;;46.25;7.60;;;8.50;99.90;;;;;;5034344;28;20029;-63
2021/12/30 00:23:49;;;;;;;53.92;7.22;;;8.50;99.90;;;;;;5032935;28;20038;-63
2021/12/30 00:26:14;;;;;;;44.10;7.50;;;8.40;99.90;;;;;;5045690;28;20121;-64
2021/12/30 00:28:40;;;;;;;47.85;8.13;;;8.40;99.90;;;;;;5033198;28;20033;-64
2021/12/30 00:31:06;;;;;;;57.08;8.40;;;8.40;99.90;;;;;;5049066;28;20041;-64
2021/12/30 00:33:33;;;;;;;50.58;8.18;;;8.30;99.90;;;;;;5062807;28;20028;-63
2021/12/30 00:35:59;;;;;;;51.47;9.38;;;8.20;99.90;;;;;;5036676;28;20033;-64
2021/12/30 00:38:25;;;;;;;49.22;8.10;;;8.30;99.90;;;;;;5047827;28;20032;-63
2021/12/30 00:40:50;;;;;;;63.92;9.75;;;8.20;99.90;;;;;;5035484;28;20373;-64
2021/12/30 00:43:16;;;;;;;48.10;8.55;;;8.20;99.90;;;;;;5032021;28;20048;-64
2021/12/30 00:45:42;;;;;;;50.20;9.30;;;8.30;99.90;;;;;;5047405;28;20049;-64
2021/12/30 00:48:08;;;;;;;44.97;7.70;;;8.30;99.90;;;;;;5036703;28;20041;-64
2021/12/30 00:50:36;;;;;;;48.25;7.90;;;8.10;99.90;;;;;;5040729;28;20126;-65
2021/12/30 00:53:03;;;;;;;53.60;9.18;;;8.20;99.90;;;;;;5040771;28;20041;-64
2021/12/30 00:55:28;;;;;;;57.38;8.52;;;8.20;99.90;;;;;;5044362;28;20048;-64
2021/12/30 00:57:54;;;;;;;53.05;8.73;;;8.10;99.90;;;;;;5041151;28;20072;-64
2021/12/30 01:00:21;;;;;;;54.00;8.10;;;8.10;99.90;;;;;;5032226;28;20119;-64
2021/12/30 01:02:47;;;;;;;57.58;8.45;;;8.20;99.90;;;;;;5033518;28;20033;-65
2021/12/30 01:05:13;;;;;;;50.05;8.88;;;8.20;99.90;;;;;;5033714;28;20059;-64
2021/12/30 01:07:39;;;;;;;48.28;7.13;;;8.10;99.90;;;;;;5047788;28;20045;-64
2021/12/30 01:10:10;;;;;;;63.80;7.70;;;8.10;99.90;;;;;;5040391;28;20040;-64
2021/12/30 01:12:36;;;;;;;56.47;8.25;;;8.00;99.90;;;;;;5016549;28;20124;-64
2021/12/30 01:15:09;;;;;;;46.60;7.10;;;7.90;99.90;;;;;;5033641;28;20144;-64
2021/12/30 01:17:54;;;;;;;53.60;7.57;;;8.00;99.90;;;;;;5044786;28;20033;-64
2021/12/30 01:20:21;;;;;;;49.35;7.82;;;8.00;99.90;;;;;;5051273;28;20577;-64
2021/12/30 01:22:48;;;;;;;49.75;8.25;;;8.00;99.90;;;;;;5040797;28;20052;-63
2021/12/30 01:25:15;;;;;;;42.83;7.00;;;8.00;99.90;;;;;;5033577;28;20052;-64
2021/12/30 01:27:41;;;;;;;59.83;6.93;;;8.00;99.90;;;;;;5036506;28;20037;-64
2021/12/30 01:30:13;;;;;;;50.65;7.40;;;7.80;99.90;;;;;;5037658;28;20091;-65
2021/12/30 01:32:39;;;;;;;39.22;7.25;;;7.90;99.90;;;;;;5043193;28;20079;-64
2021/12/30 01:35:08;;;;;;;53.70;7.65;;;8.00;99.90;;;;;;5038146;28;20111;-63
2021/12/30 01:37:34;;;;;;;52.80;7.85;;;7.80;99.90;;;;;;5048328;28;20045;-64
2021/12/30 01:40:00;;;;;;;53.65;7.30;;;7.90;99.90;;;;;;5036326;28;20033;-64
2021/12/30 01:42:26;;;;;;;38.20;6.80;;;7.90;99.90;;;;;;5041836;28;20220;-64
2021/12/30 01:44:52;;;;;;;44.65;7.15;;;8.00;99.90;;;;;;5045014;28;20536;-63
2021/12/30 01:47:17;;;;;;;47.22;7.00;;;7.90;99.90;;;;;;5049195;28;20393;-64
2021/12/30 01:49:43;;;;;;;39.70;6.80;;;7.90;99.90;;;;;;5024190;28;20413;-65
2021/12/30 01:52:09;;;;;;;50.53;8.07;;;7.90;99.90;;;;;;5045027;28;20037;-64
2021/12/30 01:54:34;;;;;;;50.42;7.90;;;7.90;99.90;;;;;;5030914;28;20071;-64
2021/12/30 01:57:04;;;;;;;44.88;7.07;;;8.00;99.90;;;;;;5049456;28;20029;-64
2021/12/30 01:59:29;;;;;;;46.95;6.97;;;7.90;99.90;;;;;;5035577;28;20492;-64
2021/12/30 02:01:58;;;;;;;42.92;6.28;;;7.90;99.90;;;;;;5044339;28;20041;-64
2021/12/30 02:04:29;;;;;;;46.40;6.90;;;7.90;99.90;;;;;;5031303;28;20242;-64
2021/12/30 02:06:56;;;;;;;40.80;6.50;;;8.00;99.90;;;;;;5032136;28;20045;-64
2021/12/30 02:09:21;;;;;;;42.80;6.97;;;8.00;99.90;;;;;;5039861;28;20045;-66
2021/12/30 02:11:48;;;;;;;41.10;6.25;;;8.00;99.90;;;;;;5038019;28;20052;-64
2021/12/30 02:14:14;;;;;;;46.78;6.88;;;7.90;99.90;;;;;;5032605;28;20046;-64
2021/12/30 02:16:41;;;;;;;46.03;6.80;;;7.90;99.90;;;;;;5039924;28;20033;-64
2021/12/30 02:19:06;;;;;;;52.50;6.70;;;7.90;99.90;;;;;;5037758;28;20548;-63
2021/12/30 02:21:32;;;;;;;43.97;7.25;;;7.90;99.90;;;;;;5039538;28;20159;-64
2021/12/30 02:23:58;;;;;;;42.90;7.57;;;8.00;99.90;;;;;;5034476;28;20099;-64
2021/12/30 02:26:24;;;;;;;39.55;7.00;;;7.90;99.90;;;;;;5049898;28;20048;-64
2021/12/30 02:28:51;;;;;;;46.33;7.63;;;7.80;99.90;;;;;;5031869;28;20592;-64
2021/12/30 02:31:21;;;;;;;48.58;6.45;;;7.80;99.90;;;;;;5033095;28;20117;-64
2021/12/30 02:33:47;;;;;;;44.08;6.88;;;7.80;99.90;;;;;;5040230;28;20061;-64
2021/12/30 02:36:16;;;;;;;42.50;7.55;;;7.80;99.90;;;;;;5042595;28;20048;-64
2021/12/30 02:38:46;;;;;;;40.65;7.32;;;8.00;99.90;;;;;;5037015;28;20545;-64
2021/12/30 02:41:17;;;;;;;59.10;9.57;;;7.90;99.90;;;;;;5031756;28;20048;-64
2021/12/30 02:43:44;;;;;;;53.08;8.30;;;8.00;99.90;;;;;;5034544;28;20172;-64
2021/12/30 02:46:10;;;;;;;49.30;8.20;;;8.00;99.90;;;;;;5039960;28;20120;-64
2021/12/30 02:48:37;;;;;;;43.20;9.77;;;8.00;99.90;;;;;;5043873;28;20068;-63
2021/12/30 02:51:05;;;;;;;44.80;9.25;;;8.00;99.90;;;;;;5054016;28;20171;-64
2021/12/30 02:53:32;;;;;;;58.65;11.82;;;8.10;99.90;;;;;;5037035;28;20377;-64
2021/12/30 02:55:57;;;;;;;67.50;12.85;;;8.20;99.90;;;;;;5033615;28;20041;-64
2021/12/30 02:58:25;;;;;;;69.63;14.35;;;8.20;99.90;;;;;;5033292;28;20040;-64
2021/12/30 03:01:13;;;;;;;68.10;13.95;;;8.20;99.90;;;;;;5031170;28;20037;-64
2021/12/30 03:03:39;;;;;;;70.55;17.35;;;8.30;99.90;;;;;;5028118;28;20503;-65
2021/12/30 03:06:07;;;;;;;73.65;17.20;;;8.40;99.90;;;;;;5046692;28;20044;-64
2021/12/30 03:08:33;;;;;;;73.25;17.75;;;8.40;99.90;;;;;;5039873;28;20044;-63
2021/12/30 03:10:59;;;;;;;70.97;17.77;;;8.50;99.90;;;;;;5041700;28;20150;-64
2021/12/30 03:13:35;;;;;;;90.13;18.60;;;8.50;99.90;;;;;;5036618;28;20088;-64
2021/12/30 03:16:05;;;;;;;77.40;18.00;;;8.50;99.90;;;;;;5038450;28;20045;-64
2021/12/30 03:18:33;;;;;;;83.43;19.42;;;8.60;99.90;;;;;;5030697;28;20048;-64
2021/12/30 03:21:00;;;;;;;85.32;20.50;;;8.80;99.90;;;;;;5034548;28;20457;-66
2021/12/30 03:23:25;;;;;;;84.00;20.20;;;8.80;99.90;;;;;;5033864;28;20037;-64
2021/12/30 03:25:51;;;;;;;77.78;20.60;;;8.70;99.90;;;;;;5043731;28;20116;-64
2021/12/30 03:28:17;;;;;;;88.05;21.05;;;8.80;99.90;;;;;;5038609;28;20148;-65
2021/12/30 03:30:43;;;;;;;97.20;21.35;;;8.80;99.90;;;;;;5037421;28;20037;-64
2021/12/30 03:33:09;;;;;;;83.00;20.23;;;8.80;99.90;;;;;;5038299;28;20090;-64
2021/12/30 03:35:34;;;;;;;95.57;22.58;;;8.90;99.90;;;;;;5037880;28;20083;-64
2021/12/30 03:38:00;;;;;;;88.40;21.20;;;8.90;99.90;;;;;;5042809;28;20041;-64
2021/12/30 03:40:26;;;;;;;81.35;21.17;;;9.00;99.90;;;;;;5045891;28;20393;-64
2021/12/30 03:42:52;;;;;;;72.53;20.23;;;9.10;99.90;;;;;;5031437;28;20043;-65
2021/12/30 03:45:17;;;;;;;88.90;21.27;;;9.10;99.90;;;;;;5033300;28;20045;-64
2021/12/30 03:47:46;;;;;;;89.85;20.50;;;9.00;99.90;;;;;;5033961;28;20044;-64
2021/12/30 03:50:21;;;;;;;80.03;20.27;;;9.00;99.90;;;;;;5029165;28;20049;-64
2021/12/30 03:52:48;;;;;;;80.45;20.63;;;9.10;99.90;;;;;;5045930;28;20208;-65
2021/12/30 03:55:16;;;;;;;82.85;20.17;;;9.20;99.90;;;;;;5035627;28;20546;-64
2021/12/30 03:57:42;;;;;;;75.47;19.25;;;9.10;99.90;;;;;;5032339;28;20053;-64
2021/12/30 04:00:09;;;;;;;83.10;20.00;;;9.20;99.90;;;;;;5054271;28;20044;-64
2021/12/30 04:02:35;;;;;;;89.95;20.35;;;9.30;99.90;;;;;;5020953;28;20378;-64
2021/12/30 04:05:00;;;;;;;74.60;18.05;;;9.30;99.90;;;;;;5052396;28;20037;-64
2021/12/30 04:07:26;;;;;;;90.75;21.17;;;9.30;99.90;;;;;;5050023;28;20483;-64
2021/12/30 04:09:51;;;;;;;70.38;18.95;;;9.20;99.90;;;;;;5033967;28;20504;-65
2021/12/30 04:12:18;;;;;;;70.68;18.75;;;9.20;99.90;;;;;;5038526;28;20808;-64
2021/12/30 04:14:44;;;;;;;72.70;18.77;;;9.30;99.90;;;;;;5035565;28;20061;-64
2021/12/30 04:17:10;;;;;;;82.20;19.42;;;9.40;99.90;;;;;;5041652;28;20037;-64
2021/12/30 04:19:35;;;;;;;83.05;18.33;;;9.30;99.90;;;;;;5031284;28;20699;-64
2021/12/30 04:22:01;;;;;;;69.32;18.15;;;9.20;99.90;;;;;;5039156;28;20063;-64
2021/12/30 04:24:26;;;;;;;66.38;17.02;;;9.30;99.90;;;;;;5016817;28;20049;-64
2021/12/30 04:26:52;;;;;;;71.85;17.02;;;9.20;99.90;;;;;;5041040;28;20130;-65
2021/12/30 04:29:19;;;;;;;77.53;17.48;;;9.30;99.90;;;;;;5044864;28;20457;-64
2021/12/30 04:31:45;;;;;;;89.10;18.30;;;9.30;99.90;;;;;;5045117;28;20086;-64
2021/12/30 04:34:11;;;;;;;79.85;18.27;;;9.30;99.90;;;;;;5021237;28;20044;-64
2021/12/30 04:36:36;;;;;;;74.82;17.95;;;9.30;99.90;;;;;;5035771;28;20118;-64
2021/12/30 04:39:03;;;;;;;82.25;18.23;;;9.50;99.90;;;;;;5032682;28;20121;-64
2021/12/30 04:41:28;;;;;;;73.35;17.92;;;9.50;99.90;;;;;;5049783;28;20044;-64
2021/12/30 04:43:54;;;;;;;74.43;18.88;;;9.50;99.90;;;;;;5059412;28;20036;-64
2021/12/30 04:46:20;;;;;;;80.53;19.48;;;9.60;99.90;;;;;;5033805;28;20124;-64
2021/12/30 04:48:45;;;;;;;71.32;18.27;;;9.50;99.90;;;;;;5031824;28;20042;-64
2021/12/30 04:51:11;;;;;;;81.40;18.70;;;9.60;99.90;;;;;;5051101;28;20151;-64
2021/12/30 04:53:36;;;;;;;73.07;18.33;;;9.60;99.90;;;;;;5039492;28;20041;-64
2021/12/30 04:56:02;;;;;;;91.07;19.45;;;9.60;99.90;;;;;;5047315;28;20037;-65
2021/12/30 04:58:28;;;;;;;79.80;18.65;;;9.70;99.90;;;;;;5024124;28;20099;-65
2021/12/30 05:00:54;;;;;;;69.53;19.98;;;9.80;99.90;;;;;;5045907;28;20500;-64
2021/12/30 05:03:21;;;;;;;77.97;20.15;;;9.90;99.90;;;;;;5040357;28;20043;-64
2021/12/30 05:05:50;;;;;;;85.50;20.02;;;9.80;99.90;;;;;;5048037;28;20548;-64
2021/12/30 05:08:21;;;;;;;75.22;20.23;;;10.00;99.90;;;;;;5034628;28;20057;-64
2021/12/30 05:10:48;;;;;;;75.95;20.48;;;10.10;99.90;;;;;;5052967;28;20117;-64
2021/12/30 05:13:14;;;;;;;79.50;19.35;;;10.00;99.90;;;;;;5045302;28;20056;-65
2021/12/30 05:15:41;;;;;;;77.85;19.95;;;10.00;99.90;;;;;;5032073;28;20045;-64
2021/12/30 05:18:09;;;;;;;69.18;17.80;;;10.00;99.90;;;;;;5034680;28;20036;-64
2021/12/30 05:20:35;;;;;;;69.82;16.90;;;10.20;99.90;;;;;;5037676;28;20440;-64
2021/12/30 05:23:01;;;;;;;61.88;17.25;;;10.10;99.90;;;;;;5044828;28;20037;-64
2021/12/30 05:25:27;;;;;;;57.80;17.17;;;10.10;99.90;;;;;;5051336;28;20449;-64
2021/12/30 05:27:53;;;;;;;50.72;16.27;;;10.30;99.90;;;;;;5032653;28;20111;-64
2021/12/30 05:30:21;;;;;;;65.30;17.73;;;10.30;99.90;;;;;;5039072;28;20091;-64
2021/12/30 05:32:48;;;;;;;57.80;16.67;;;10.20;99.90;;;;;;5046435;28;20076;-65
2021/12/30 05:35:14;;;;;;;63.45;18.02;;;10.40;99.90;;;;;;5033517;28;20045;-64
2021/12/30 05:37:41;;;;;;;60.58;18.30;;;10.30;99.90;;;;;;5041078;28;20052;-64
2021/12/30 05:40:10;;;;;;;53.80;16.42;;;10.30;99.90;;;;;;5050880;28;20044;-64
2021/12/30 05:42:35;;;;;;;53.90;17.23;;;10.50;99.90;;;;;;5045241;28;20049;-63
2021/12/30 05:45:02;;;;;;;58.17;16.77;;;10.40;99.90;;;;;;5030501;28;20051;-65
2021/12/30 05:47:28;;;;;;;58.17;15.70;;;10.30;99.90;;;;;;5059679;28;20120;-64
2021/12/30 05:49:54;;;;;;;45.63;14.40;;;10.40;99.90;;;;;;5032728;28;20120;-65
2021/12/30 05:52:19;;;;;;;53.03;15.75;;;10.50;99.90;;;;;;5053270;28;20045;-66
2021/12/30 05:54:45;;;;;;;46.85;14.73;;;10.50;99.90;;;;;;5031914;28;20041;-64
2021/12/30 05:57:11;;;;;;;53.08;14.82;;;10.50;99.90;;;;;;5039072;28;20037;-64
2021/12/30 05:59:36;;;;;;;38.00;12.85;;;10.50;99.90;;;;;;5039043;28;20037;-64
2021/12/30 06:02:03;;;;;;;36.25;12.30;;;10.40;99.90;;;;;;5046303;28;20884;-65
2021/12/30 06:04:29;;;;;;;36.72;12.77;;;10.50;99.90;;;;;;5029250;28;20072;-64
2021/12/30 06:06:54;;;;;;;45.35;14.65;;;10.60;99.90;;;;;;5043337;28;20080;-67
2021/12/30 06:09:22;;;;;;;45.88;14.23;;;10.60;99.90;;;;;;5029911;28;20034;-64
2021/12/30 06:11:48;;;;;;;39.35;14.02;;;10.60;99.90;;;;;;5033765;28;20156;-65
2021/12/30 06:14:14;;;;;;;40.35;13.48;;;10.70;99.90;;;;;;5036966;28;20525;-64
2021/12/30 06:16:39;;;;;;;40.17;14.63;;;10.70;99.90;;;;;;5035071;28;20053;-65
2021/12/30 06:19:05;;;;;;;54.17;15.90;;;10.70;99.90;;;;;;5030559;28;20067;-63
2021/12/30 06:21:30;;;;;;;51.63;16.73;;;10.70;99.90;;;;;;5035368;28;20029;-64
2021/12/30 06:23:56;;;;;;;71.18;19.52;;;10.90;99.90;;;;;;5035394;28;20194;-65
2021/12/30 06:26:22;;;;;;;71.10;18.73;;;10.80;99.90;;;;;;5061091;28;20048;-63
2021/12/30 06:28:47;;;;;;;76.60;19.45;;;10.90;99.90;;;;;;5045211;28;20074;-64
2021/12/30 06:31:13;;;;;;;76.80;20.85;;;10.90;99.90;;;;;;5049003;28;20476;-64
2021/12/30 06:33:39;;;;;;;101.28;24.20;;;10.90;99.90;;;;;;5040865;28;20033;-65
2021/12/30 06:36:05;;;;;;;85.93;21.58;;;10.90;99.90;;;;;;5030820;28;20042;-64
2021/12/30 06:38:32;;;;;;;110.18;23.88;;;10.90;99.90;;;;;;5035568;28;20065;-65
2021/12/30 06:40:58;;;;;;;106.00;23.65;;;10.90;99.90;;;;;;5033295;28;20040;-64
2021/12/30 06:43:24;;;;;;;87.60;22.60;;;11.00;99.90;;;;;;5043915;28;20041;-65
2021/12/30 06:45:49;;;;;;;116.47;25.85;;;11.00;99.90;;;;;;5036490;28;20071;-64
2021/12/30 06:48:15;;;;;;;131.45;25.45;;;11.00;99.90;;;;;;5037253;28;20115;-64
2021/12/30 06:50:54;;;;;;;109.25;25.77;;;10.90;99.90;;;;;;5029835;28;20068;-64
2021/12/30 06:53:23;;;;;;;104.35;23.95;;;11.00;99.90;;;;;;5042764;28;20049;-64
2021/12/30 06:55:50;;;;;;;86.28;21.88;;;11.00;99.90;;;;;;5045007;28;20049;-64
2021/12/30 06:58:16;;;;;;;73.68;21.10;;;11.00;99.90;;;;;;5041406;28;20154;-65
2021/12/30 07:00:43;;;;;;;108.32;24.10;;;11.10;99.90;;;;;;5033839;28;20033;-64
2021/12/30 07:03:09;;;;;;;103.90;21.75;;;11.00;99.90;;;;;;5028845;28;20056;-64
2021/12/30 07:05:34;;;;;;;72.68;17.40;;;11.10;99.90;;;;;;5030609;28;20045;-66
2021/12/30 07:08:00;;;;;;;63.90;15.15;;;11.10;99.90;;;;;;5039011;28;20095;-66
2021/12/30 07:10:26;;;;;;;75.72;16.88;;;11.20;99.90;;;;;;5035021;28;20048;-65
2021/12/30 07:12:52;;;;;;;73.80;16.98;;;11.30;99.90;;;;;;5033782;28;20125;-65
2021/12/30 07:15:18;;;;;;;57.53;15.82;;;11.30;99.90;;;;;;5031615;28;20489;-65
2021/12/30 07:17:43;;;;;;;46.22;13.88;;;11.20;99.90;;;;;;5035658;28;20416;-66
2021/12/30 07:20:10;;;;;;;71.85;15.48;;;11.30;99.90;;;;;;5029306;28;20041;-65
2021/12/30 07:22:36;;;;;;;49.25;12.73;;;11.30;99.90;;;;;;5038936;28;20053;-66
2021/12/30 07:25:02;;;;;;;47.00;13.35;;;11.20;99.90;;;;;;5050573;28;20040;-66
2021/12/30 07:27:28;;;;;;;42.95;11.98;;;11.40;99.90;;;;;;5038727;28;20045;-66
2021/12/30 07:29:53;;;;;;;44.83;12.32;;;11.40;99.90;;;;;;5033782;28;20048;-65
2021/12/30 07:32:19;;;;;;;41.85;12.05;;;11.40;99.90;;;;;;5035823;28;20105;-65
2021/12/30 07:34:45;;;;;;;53.22;12.75;;;11.30;99.90;;;;;;5049214;28;20076;-65
2021/12/30 07:37:14;;;;;;;33.08;10.63;;;11.40;99.90;;;;;;5037495;28;20599;-65
2021/12/30 07:39:44;;;;;;;32.92;10.70;;;11.30;99.90;;;;;;5036806;28;20056;-66
2021/12/30 07:42:10;;;;;;;44.05;10.90;;;11.30;99.90;;;;;;5038574;28;20076;-65
2021/12/30 07:44:36;;;;;;;37.78;9.70;;;11.30;99.90;;;;;;5048618;28;20658;-66
2021/12/30 07:47:02;;;;;;;44.20;10.50;;;11.30;99.90;;;;;;5026552;28;20486;-66
2021/12/30 07:49:27;;;;;;;30.23;8.13;;;11.40;99.90;;;;;;5033841;28;20704;-66
2021/12/30 07:51:53;;;;;;;28.67;9.27;;;11.40;99.90;;;;;;5042224;28;20042;-65
2021/12/30 07:54:19;;;;;;;29.52;8.48;;;11.30;99.90;;;;;;5051613;28;20170;-65
2021/12/30 07:56:45;;;;;;;27.65;8.07;;;11.40;99.90;;;;;;5048924;28;20044;-67
2021/12/30 07:59:11;;;;;;;24.33;7.13;;;11.30;99.90;;;;;;5038421;28;20033;-65
2021/12/30 08:01:36;;;;;;;15.85;6.15;;;11.40;99.90;;;;;;5042520;28;20508;-65
2021/12/30 08:04:02;;;;;;;25.65;6.68;;;11.40;99.90;;;;;;5045535;28;20040;-65
2021/12/30 08:06:28;;;;;;;17.58;5.53;;;11.50;99.90;;;;;;5032590;28;20044;-65
2021/12/30 08:08:55;;;;;;;26.80;6.07;;;11.40;99.90;;;;;;5039366;28;20033;-65
2021/12/30 08:11:21;;;;;;;15.70;4.90;;;11.40;99.90;;;;;;5054176;28;20068;-66
2021/12/30 08:13:46;;;;;;;19.83;5.32;;;11.50;99.90;;;;;;5044865;28;20775;-66
2021/12/30 08:16:13;;;;;;;13.13;4.18;;;11.30;99.90;;;;;;5044947;28;20048;-67
2021/12/30 08:18:40;;;;;;;10.50;4.25;;;11.40;99.90;;;;;;5031191;28;20116;-65
2021/12/30 08:21:05;;;;;;;9.65;3.80;;;11.40;99.90;;;;;;5045002;28;20128;-66
2021/12/30 08:23:31;;;;;;;9.18;3.88;;;11.50;99.90;;;;;;5038443;28;20474;-65
2021/12/30 08:25:56;;;;;;;8.27;3.67;;;11.50;99.90;;;;;;5034090;28;20045;-66
2021/12/30 08:28:24;;;;;;;14.43;4.38;;;11.60;99.90;;;;;;5036318;28;20077;-65
2021/12/30 08:30:51;;;;;;;10.10;3.92;;;11.60;99.90;;;;;;5051781;28;20463;-66
2021/12/30 08:33:17;;;;;;;12.65;4.97;;;11.50;99.90;;;;;;5052089;28;20072;-65
2021/12/30 08:35:43;;;;;;;7.22;3.47;;;11.60;99.90;;;;;;5037783;28;20047;-66
2021/12/30 08:38:09;;;;;;;8.35;3.78;;;11.50;99.90;;;;;;5035172;28;20037;-65
2021/12/30 08:40:34;;;;;;;6.25;3.33;;;11.60;99.90;;;;;;5043179;28;20135;-65
2021/12/30 08:43:00;;;;;;;9.95;4.07;;;11.60;99.90;;;;;;5029609;28;20045;-66
2021/12/30 08:45:25;;;;;;;9.23;3.80;;;11.60;99.90;;;;;;5013200;28;20614;-65
2021/12/30 08:47:51;;;;;;;17.02;4.03;;;11.70;99.90;;;;;;5033749;28;20136;-66
2021/12/30 08:50:17;;;;;;;7.43;3.42;;;11.60;99.90;;;;;;5040686;28;20045;-65
2021/12/30 08:52:44;;;;;;;11.38;4.15;;;11.70;99.90;;;;;;5051980;28;20041;-66
2021/12/30 08:55:10;;;;;;;7.13;3.63;;;11.80;99.90;;;;;;5045046;28;20037;-66
2021/12/30 08:57:38;;;;;;;8.35;3.65;;;11.80;99.90;;;;;;5046279;28;20039;-65
2021/12/30 09:00:28;;;;;;;10.95;4.38;;;11.60;99.90;;;;;;5052662;28;20041;-67
2021/12/30 09:02:55;;;;;;;11.60;4.65;;;11.70;99.90;;;;;;5051770;28;20067;-66
2021/12/30 09:05:22;;;;;;;12.65;4.15;;;11.70;99.90;;;;;;5051361;28;20439;-66
2021/12/30 09:07:48;;;;;;;12.02;4.90;;;11.80;99.90;;;;;;5051222;28;20056;-65
2021/12/30 09:10:15;;;;;;;10.63;5.10;;;11.70;99.90;;;;;;5053449;28;20040;-66
2021/12/30 09:12:43;;;;;;;18.13;6.65;;;11.80;99.90;;;;;;5051315;28;20684;-67
2021/12/30 09:15:11;;;;;;;17.38;6.65;;;11.80;99.90;;;;;;5050435;28;20164;-65
2021/12/30 09:17:37;;;;;;;15.48;6.97;;;11.80;99.90;;;;;;5046052;28;20033;-68
2021/12/30 09:20:04;;;;;;;17.33;7.25;;;11.90;99.90;;;;;;5031291;28;20052;-65
2021/12/30 09:22:29;;;;;;;27.58;8.20;;;11.90;99.90;;;;;;5051981;28;20032;-65
2021/12/30 09:24:55;;;;;;;22.20;7.47;;;11.90;99.90;;;;;;5054956;28;20120;-66
2021/12/30 09:27:21;;;;;;;17.80;7.40;;;11.80;99.90;;;;;;5066468;28;20411;-65
2021/12/30 09:29:46;;;;;;;22.08;7.65;;;11.80;99.90;;;;;;5050601;28;20452;-70
2021/12/30 09:32:12;;;;;;;22.25;7.55;;;11.80;99.90;;;;;;5044723;28;20110;-66
2021/12/30 09:34:38;;;;;;;19.63;7.20;;;11.90;99.90;;;;;;5049837;28;20119;-67
2021/12/30 09:37:08;;;;;;;20.27;6.93;;;11.90;99.90;;;;;;5050420;28;20041;-65
2021/12/30 09:39:35;;;;;;;20.08;6.60;;;12.10;99.90;;;;;;5051170;28;20037;-66
2021/12/30 09:42:01;;;;;;;16.80;6.40;;;12.00;99.90;;;;;;5050675;28;20045;-66
2021/12/30 09:44:27;;;;;;;18.83;5.93;;;11.90;99.90;;;;;;5049035;28;20443;-67
2021/12/30 09:46:52;;;;;;;20.15;7.28;;;12.10;99.90;;;;;;5032028;28;20068;-69
2021/12/30 09:49:18;;;;;;;25.95;7.65;;;12.10;99.90;;;;;;5047472;28;20059;-66
2021/12/30 09:51:45;;;;;;;21.52;7.28;;;12.00;99.90;;;;;;5052234;28;20041;-66
2021/12/30 09:54:11;;;;;;;16.05;6.85;;;12.10;99.90;;;;;;5047628;28;20034;-67
2021/12/30 09:56:37;;;;;;;22.15;8.35;;;12.10;99.90;;;;;;5050870;28;20036;-67
2021/12/30 09:59:03;;;;;;;22.02;7.55;;;12.00;99.90;;;;;;5045968;28;20041;-66
2021/12/30 10:01:29;;;;;;;23.33;7.80;;;12.10;99.90;;;;;;5050550;28;20037;-66
2021/12/30 10:04:01;;;;;;;22.13;8.20;;;12.20;99.90;;;;;;5042644;28;20041;-67
2021/12/30 10:06:29;;;;;;;19.08;7.18;;;12.10;99.90;;;;;;5050773;28;20045;-67
2021/12/30 10:08:57;;;;;;;16.83;6.38;;;12.00;99.90;;;;;;5049790;28;20037;-65
2021/12/30 10:11:24;;;;;;;19.02;6.53;;;12.10;99.90;;;;;;5019237;28;20044;-66
2021/12/30 10:13:59;;;;;;;17.83;6.28;;;12.10;99.90;;;;;;5055082;28;20523;-68
2021/12/30 10:16:26;;;;;;;17.55;6.03;;;12.00;99.90;;;;;;5030153;28;20685;-67
2021/12/30 10:18:57;;;;;;;16.67;5.80;;;12.00;99.90;;;;;;5029307;28;20508;-66
2021/12/30 10:21:26;;;;;;;14.73;4.97;;;12.10;99.90;;;;;;5032266;28;20038;-66
2021/12/30 10:23:53;;;;;;;13.07;5.22;;;11.90;99.90;;;;;;5034517;28;20042;-67
2021/12/30 10:26:19;;;;;;;17.08;5.00;;;12.10;99.90;;;;;;5031798;28;20104;-66
2021/12/30 10:28:48;;;;;;;12.10;4.80;;;12.10;99.90;;;;;;5013186;28;20140;-67
2021/12/30 10:31:18;;;;;;;14.98;5.05;;;12.00;99.90;;;;;;5034758;28;20496;-65
2021/12/30 10:33:49;;;;;;;19.70;5.05;;;11.90;99.90;;;;;;5029508;28;20045;-66
2021/12/30 10:36:21;;;;;;;10.48;4.40;;;12.00;99.90;;;;;;5042519;28;20358;-66
2021/12/30 10:38:47;;;;;;;11.27;4.07;;;12.10;99.90;;;;;;5044187;28;20114;-66
2021/12/30 10:41:13;;;;;;;15.13;4.00;;;12.10;99.90;;;;;;5030170;28;20045;-66
2021/12/30 10:43:47;;;;;;;16.88;4.57;;;12.00;99.90;;;;;;5028941;28;20042;-67
2021/12/30 10:46:26;;;;;;;14.15;3.92;;;12.10;99.90;;;;;;5040793;28;20076;-66
2021/12/30 10:49:11;;;;;;;15.10;5.85;;;12.10;99.90;;;;;;5038484;28;20118;-66
2021/12/30 10:51:47;;;;;;;15.88;4.80;;;12.00;99.90;;;;;;5034432;28;20041;-67
2021/12/30 10:54:21;;;;;;;16.55;5.32;;;12.10;99.90;;;;;;5030174;28;20033;-66
2021/12/30 10:56:58;;;;;;;18.10;6.43;;;12.00;99.90;;;;;;5041122;28;20037;-66
2021/12/30 10:59:25;;;;;;;21.05;5.68;;;12.00;99.90;;;;;;5029474;28;20041;-65
2021/12/30 11:02:02;;;;;;;18.45;5.82;;;12.00;99.90;;;;;;5030074;28;20033;-65
2021/12/30 11:04:40;;;;;;;23.08;6.75;;;12.00;99.90;;;;;;5030565;28;20037;-67
2021/12/30 11:07:08;;;;;;;31.13;6.15;;;12.20;99.90;;;;;;5029091;28;20041;-65
2021/12/30 11:09:34;;;;;;;25.90;6.18;;;12.00;99.90;;;;;;5035214;28;20029;-66
2021/12/30 11:12:05;;;;;;;24.33;6.65;;;12.00;99.90;;;;;;5038505;28;20373;-67
2021/12/30 11:14:34;;;;;;;30.42;7.13;;;12.10;99.90;;;;;;5032398;28;20045;-65
2021/12/30 11:17:11;;;;;;;26.38;6.88;;;12.00;99.90;;;;;;5031246;28;20077;-66
2021/12/30 11:19:43;;;;;;;31.15;6.60;;;12.10;99.90;;;;;;5039703;28;20102;-66
2021/12/30 11:22:21;;;;;;;27.15;6.75;;;12.00;99.90;;;;;;5035663;28;20508;-65
2021/12/30 11:24:48;;;;;;;26.20;7.28;;;12.00;99.90;;;;;;5041330;28;20392;-64
2021/12/30 11:27:16;;;;;;;29.13;6.65;;;12.10;99.90;;;;;;5068800;28;20059;-65
2021/12/30 11:29:45;;;;;;;30.50;7.68;;;12.10;99.90;;;;;;5070382;28;20124;-64
2021/12/30 11:32:16;;;;;;;26.85;6.80;;;12.00;99.90;;;;;;5038792;28;20041;-67
2021/12/30 11:34:42;;;;;;;25.58;6.55;;;12.00;99.90;;;;;;5041022;28;20044;-70
2021/12/30 11:37:08;;;;;;;25.55;7.07;;;12.00;99.90;;;;;;5015992;28;20498;-67
2021/12/30 11:39:34;;;;;;;26.20;6.65;;;12.00;99.90;;;;;;5035724;28;20049;-67
2021/12/30 11:42:06;;;;;;;33.97;7.18;;;12.00;99.90;;;;;;5040696;28;20051;-68
2021/12/30 11:44:36;;;;;;;24.60;6.20;;;12.00;99.90;;;;;;5040706;28;20044;-67
2021/12/30 11:47:03;;;;;;;26.60;6.35;;;12.00;99.90;;;;;;5046980;28;20072;-66
2021/12/30 11:49:56;;;;;;;25.38;6.25;;;11.90;99.90;;;;;;5030180;28;20129;-68
2021/12/30 11:52:49;;;;;;;34.25;6.40;;;11.90;99.90;;;;;;5042196;28;20037;-66
2021/12/30 11:55:52;;;;;;;39.60;7.22;;;12.00;99.90;;;;;;5038532;28;20111;-67
2021/12/30 11:58:32;;;;;;;29.58;6.63;;;12.00;99.90;;;;;;5015604;28;20334;-66
2021/12/30 12:01:02;;;;;;;27.88;6.15;;;11.90;99.90;;;;;;5038318;28;20076;-67
2021/12/30 12:03:35;;;;;;;29.70;6.30;;;12.00;99.90;;;;;;5027405;28;20124;-66
2021/12/30 12:06:25;;;;;;;31.02;6.28;;;12.00;99.90;;;;;;5031492;28;20123;-68
2021/12/30 12:09:00;;;;;;;32.08;6.72;;;11.90;99.90;;;;;;5030980;28;20651;-67
2021/12/30 12:11:56;;;;;;;28.48;6.55;;;11.90;99.90;;;;;;5033300;28;20034;-67
2021/12/30 12:14:24;;;;;;;27.40;7.25;;;12.00;99.90;;;;;;5032212;28;20444;-66
2021/12/30 12:16:55;;;;;;;32.60;6.78;;;11.90;99.90;;;;;;5030372;28;20049;-67
2021/12/30 12:19:41;;;;;;;36.63;7.10;;;11.90;99.90;;;;;;5042050;28;20046;-67
2021/12/30 12:22:17;;;;;;;21.17;6.40;;;11.90;99.90;;;;;;5036152;28;20136;-65
2021/12/30 12:24:48;;;;;;;27.77;7.03;;;11.80;99.90;;;;;;5038126;28;20080;-65
2021/12/30 12:27:19;;;;;;;36.90;6.55;;;11.90;99.90;;;;;;5033495;28;20639;-65
2021/12/30 12:29:52;;;;;;;30.48;6.07;;;11.90;99.90;;;;;;5031503;28;20481;-65
2021/12/30 12:32:26;;;;;;;26.52;6.43;;;11.90;99.90;;;;;;5036670;28;20044;-65
2021/12/30 12:34:56;;;;;;;35.28;6.78;;;12.00;99.90;;;;;;5035580;28;20086;-66
2021/12/30 12:37:36;;;;;;;29.13;6.00;;;11.90;99.90;;;;;;5031597;28;20393;-67
2021/12/30 12:40:10;;;;;;;29.75;6.75;;;11.90;99.90;;;;;;5032800;28;20090;-67
2021/12/30 12:42:51;;;;;;;31.95;6.07;;;11.90;99.90;;;;;;5045042;28;20533;-67